Time;durP1;ratioP1;P1;durP2;ratioP2;P2;SDS_P1;SDS_P2;PMS_P1;PMS_P2;Temp;Humidity;BMP_temperature;BMP_pressure;BME280_temperature;BME280_humidity;BME280_pressure;Samples;Min_cycle;Max_cycle;Signal;HPM_P1;HPM_P2
2024/04/05 00:03:05;;;;;;;26.87;4.93;;;;;12.00;100443.00;;;;10232950;28;20228;-77
2024/04/05 00:08:06;;;;;;;22.13;4.50;;;;;12.00;100459.00;;;;10232627;28;20234;-79
2024/04/05 00:13:07;;;;;;;21.07;3.97;;;;;12.00;100453.00;;;;10249761;28;20235;-84
2024/04/05 00:18:09;;;;;;;17.07;4.07;;;;;12.00;100457.00;;;;10212293;28;20216;-85
2024/04/05 00:23:09;;;;;;;21.17;4.77;;;;;12.00;100455.00;;;;10228942;28;21029;-85
2024/04/05 00:28:11;;;;;;;24.17;4.50;;;;;12.10;100459.00;;;;10248934;28;20812;-86
2024/04/05 00:33:12;;;;;;;15.97;3.57;;;;;12.10;100451.00;;;;10245076;28;20216;-84
2024/04/05 00:38:13;;;;;;;15.63;3.60;;;;;12.20;100465.00;;;;10247893;28;20225;-83
2024/04/05 00:43:14;;;;;;;13.53;3.53;;;;;12.10;100470.00;;;;10231248;28;20228;-83
2024/04/05 00:48:18;;;;;;;14.67;3.20;;;;;12.10;100461.00;;;;10231828;28;20232;-84
2024/04/05 00:53:24;;;;;;;20.63;3.93;;;;;12.10;100464.00;;;;10239016;28;20244;-84
2024/04/05 00:58:28;;;;;;;15.70;2.37;;;;;12.20;100463.00;;;;10227970;28;20322;-84
2024/04/05 01:03:29;;;;;;;13.50;3.20;;;;;12.30;100456.00;;;;10198161;28;20221;-83
2024/04/05 01:08:30;;;;;;;12.23;2.90;;;;;12.40;100442.00;;;;10240640;28;20283;-83
2024/04/05 01:13:31;;;;;;;16.83;3.47;;;;;12.50;100459.00;;;;10225101;28;20732;-83
2024/04/05 01:18:32;;;;;;;15.13;3.60;;;;;12.60;100443.00;;;;10227791;28;21016;-83
2024/04/05 01:23:40;;;;;;;13.20;3.50;;;;;12.80;100446.00;;;;10245209;28;20775;-80
2024/04/05 01:28:41;;;;;;;13.80;3.17;;;;;12.90;100446.00;;;;10245370;28;20221;-80
2024/04/05 01:33:42;;;;;;;21.03;4.63;;;;;13.00;100459.00;;;;10217475;28;20225;-79
2024/04/05 01:46:00;;;;;;;13.67;3.20;;;;;13.10;100471.00;;;;10248949;28;20233;-79
2024/04/05 01:51:01;;;;;;;10.00;2.90;;;;;13.20;100467.00;;;;10239631;28;20229;-79
2024/04/05 01:56:02;;;;;;;16.30;3.35;;;;;13.20;100464.00;;;;10237714;28;20228;-79
2024/04/05 02:01:04;;;;;;;11.90;2.63;;;;;13.40;100465.00;;;;10249650;28;20225;-78
2024/04/05 02:06:12;;;;;;;8.88;2.15;;;;;13.40;100455.00;;;;10228647;28;20217;-78
2024/04/05 02:11:13;;;;;;;14.93;3.92;;;;;13.40;100450.00;;;;10225145;28;20277;-78
2024/04/05 02:16:14;;;;;;;13.48;3.17;;;;;13.30;100448.00;;;;10227998;28;20224;-81
2024/04/05 02:21:15;;;;;;;12.90;2.42;;;;;13.10;100438.00;;;;10243793;28;20235;-80
2024/04/05 02:26:16;;;;;;;13.23;2.97;;;;;12.90;100429.00;;;;10241508;28;20208;-78
2024/04/05 02:31:17;;;;;;;10.50;2.90;;;;;12.80;100414.00;;;;10213483;28;20588;-77
2024/04/05 02:36:18;;;;;;;10.93;2.63;;;;;12.70;100423.00;;;;10227996;28;20364;-77
2024/04/05 02:41:19;;;;;;;19.33;3.73;;;;;12.60;100426.00;;;;10229741;28;20367;-77
2024/04/05 02:46:20;;;;;;;13.37;3.23;;;;;12.60;100437.00;;;;10217380;28;20601;-77
2024/04/05 02:51:22;;;;;;;16.73;3.00;;;;;12.60;100418.00;;;;10235601;28;20254;-79
2024/04/05 02:56:23;;;;;;;13.77;3.53;;;;;12.60;100404.00;;;;10239490;28;20220;-79
2024/04/05 03:01:24;;;;;;;15.40;3.40;;;;;12.60;100382.00;;;;10265275;28;20229;-79
2024/04/05 03:06:25;;;;;;;8.73;3.00;;;;;12.60;100382.00;;;;10239875;28;21048;-78
2024/04/05 03:11:27;;;;;;;12.13;2.77;;;;;12.50;100384.00;;;;10231240;28;20946;-78
2024/04/05 03:16:27;;;;;;;14.43;3.07;;;;;12.60;100400.00;;;;10251102;28;20280;-79
2024/04/05 03:21:28;;;;;;;16.37;2.93;;;;;12.60;100404.00;;;;10229140;28;20227;-78
2024/04/05 03:26:31;;;;;;;12.03;3.10;;;;;12.60;100397.00;;;;10211408;28;20752;-76
2024/04/05 03:31:32;;;;;;;6.77;2.33;;;;;12.60;100397.00;;;;10233483;28;20895;-77
2024/04/05 03:36:33;;;;;;;11.00;2.53;;;;;12.50;100382.00;;;;10237784;28;20591;-79
2024/04/05 03:41:34;;;;;;;13.50;2.70;;;;;12.50;100378.00;;;;10233439;28;20224;-79
2024/04/05 03:46:38;;;;;;;10.07;2.60;;;;;12.50;100366.00;;;;10234107;28;20269;-80
2024/04/05 03:51:39;;;;;;;10.50;2.93;;;;;12.50;100356.00;;;;10272142;28;20228;-80
2024/04/05 03:56:39;;;;;;;14.23;3.10;;;;;12.50;100366.00;;;;10251034;28;21331;-79
2024/04/05 04:01:40;;;;;;;11.13;3.13;;;;;12.50;100345.00;;;;10239280;28;20236;-80
2024/04/05 04:06:41;;;;;;;11.83;3.83;;;;;12.40;100349.00;;;;10256828;28;20279;-79
2024/04/05 04:11:43;;;;;;;12.20;2.77;;;;;12.30;100351.00;;;;10233604;28;20275;-78
2024/04/05 04:16:45;;;;;;;11.03;3.40;;;;;12.30;100347.00;;;;10236359;28;20248;-80
2024/04/05 04:21:47;;;;;;;14.00;3.17;;;;;12.40;100349.00;;;;10232103;28;20235;-80
2024/04/05 04:26:48;;;;;;;8.33;2.90;;;;;12.40;100337.00;;;;10233031;28;20235;-79
2024/04/05 04:31:49;;;;;;;12.20;3.43;;;;;12.40;100361.00;;;;10220174;28;20687;-80
2024/04/05 04:36:50;;;;;;;15.23;3.63;;;;;12.30;100325.00;;;;10235633;28;20252;-79
2024/04/05 04:41:51;;;;;;;14.60;3.73;;;;;12.30;100302.00;;;;10226262;28;20255;-80
2024/04/05 04:46:53;;;;;;;8.97;2.93;;;;;12.30;100273.00;;;;10211515;28;20308;-79
2024/04/05 04:51:54;;;;;;;9.63;2.90;;;;;12.30;100275.00;;;;10215938;28;20220;-77
2024/04/05 04:56:55;;;;;;;8.97;3.10;;;;;12.30;100285.00;;;;10261853;28;20307;-78
2024/04/05 05:01:56;;;;;;;13.87;2.83;;;;;12.30;100281.00;;;;10242077;28;20232;-78
2024/04/05 05:06:57;;;;;;;10.03;3.27;;;;;12.30;100283.00;;;;10209834;28;20941;-78
2024/04/05 05:11:59;;;;;;;12.57;2.60;;;;;12.30;100278.00;;;;10237615;28;20236;-78
2024/04/05 05:17:01;;;;;;;9.83;2.93;;;;;12.30;100257.00;;;;10226779;28;21127;-79
2024/04/05 05:22:02;;;;;;;15.67;3.83;;;;;12.40;100263.00;;;;10249205;28;20741;-79
2024/04/05 05:27:03;;;;;;;9.63;3.37;;;;;12.60;100249.00;;;;10220563;28;20585;-78
2024/04/05 05:32:04;;;;;;;9.17;2.97;;;;;12.70;100247.00;;;;10233354;28;20251;-80
2024/04/05 05:37:05;;;;;;;9.83;3.17;;;;;12.80;100245.00;;;;10222549;28;20294;-77
2024/04/05 05:42:07;;;;;;;6.47;2.50;;;;;13.00;100230.00;;;;10213632;28;20236;-78
2024/04/05 05:47:08;;;;;;;10.43;2.90;;;;;13.00;100234.00;;;;10260492;28;20227;-78
2024/04/05 05:52:10;;;;;;;7.00;2.10;;;;;13.00;100225.00;;;;10227784;28;20752;-77
2024/04/05 05:57:10;;;;;;;8.13;1.97;;;;;13.20;100219.00;;;;10239107;28;20312;-77
2024/04/05 06:02:11;;;;;;;10.32;2.38;;;;;13.30;100210.00;;;;10244673;28;20239;-78
2024/04/05 06:07:12;;;;;;;6.77;2.00;;;;;13.40;100204.00;;;;10227433;28;20307;-78
2024/04/05 06:12:13;;;;;;;13.17;2.70;;;;;13.60;100187.00;;;;10229220;28;20220;-76
2024/04/05 06:17:14;;;;;;;6.57;2.17;;;;;13.60;100188.00;;;;10230806;28;20308;-79
2024/04/05 06:22:15;;;;;;;7.15;2.20;;;;;13.60;100180.00;;;;10228965;28;20225;-78
2024/04/05 06:27:16;;;;;;;8.57;2.40;;;;;13.60;100180.00;;;;10224848;28;20303;-78
2024/04/05 06:32:18;;;;;;;9.50;2.25;;;;;13.80;100169.00;;;;10234085;28;20228;-79
2024/04/05 06:37:19;;;;;;;9.23;2.17;;;;;13.80;100155.00;;;;10227424;28;20220;-78
2024/04/05 06:42:20;;;;;;;6.95;2.10;;;;;13.90;100153.00;;;;10224335;28;20228;-80
2024/04/05 06:47:21;;;;;;;7.05;2.20;;;;;13.90;100136.00;;;;10217275;28;20225;-78
2024/04/05 06:52:22;;;;;;;4.03;1.90;;;;;14.00;100126.00;;;;10241807;28;20228;-79
2024/04/05 06:57:23;;;;;;;3.85;1.40;;;;;14.20;100113.00;;;;10224519;28;20228;-80
2024/04/05 07:02:24;;;;;;;5.32;2.10;;;;;14.40;100107.00;;;;10230436;28;20905;-80
2024/04/05 07:07:25;;;;;;;5.85;1.55;;;;;14.60;100092.00;;;;10232334;28;20229;-79
2024/04/05 07:12:26;;;;;;;3.25;1.20;;;;;14.90;100091.00;;;;10230971;28;20221;-80
2024/04/05 07:17:27;;;;;;;3.88;1.80;;;;;15.20;100079.00;;;;10237815;28;20220;-82
2024/04/05 07:22:29;;;;;;;10.48;2.20;;;;;15.30;100067.00;;;;10237377;28;21005;-81
2024/04/05 07:27:30;;;;;;;3.00;1.20;;;;;15.50;100073.00;;;;10220267;28;20223;-82
2024/04/05 07:32:31;;;;;;;4.97;1.30;;;;;15.30;100064.00;;;;10229990;28;20917;-81
2024/04/05 07:37:32;;;;;;;2.33;1.27;;;;;15.40;100049.00;;;;10225587;28;20225;-80
2024/04/05 07:42:34;;;;;;;5.32;1.35;;;;;15.70;100054.00;;;;10219987;28;20229;-80
2024/04/05 07:47:35;;;;;;;4.55;1.63;;;;;15.90;100056.00;;;;10247692;28;20231;-80
2024/04/05 07:52:36;;;;;;;3.88;1.17;;;;;16.10;100065.00;;;;10228620;28;20232;-79
2024/04/05 07:57:37;;;;;;;5.25;1.30;;;;;16.10;100110.00;;;;10226214;28;20227;-81
2024/04/05 08:02:38;;;;;;;2.72;1.10;;;;;15.90;100125.00;;;;10226207;28;20239;-80
2024/04/05 08:07:39;;;;;;;4.07;1.10;;;;;16.00;100146.00;;;;10230738;28;20228;-80
2024/04/05 08:12:40;;;;;;;6.03;1.50;;;;;16.40;100146.00;;;;10230609;28;20299;-79
2024/04/05 08:17:42;;;;;;;6.72;1.13;;;;;16.20;100136.00;;;;10241377;28;20224;-79
2024/04/05 08:22:43;;;;;;;5.32;1.45;;;;;16.60;100155.00;;;;10229610;28;20754;-75
2024/04/05 08:27:45;;;;;;;6.18;1.08;;;;;16.30;100160.00;;;;10257134;28;20224;-77
2024/04/05 08:32:46;;;;;;;3.85;1.50;;;;;15.70;100157.00;;;;10244814;28;20622;-76
2024/04/05 08:37:47;;;;;;;5.65;1.58;;;;;15.60;100177.00;;;;10213501;28;20769;-75
2024/04/05 08:42:51;;;;;;;10.52;1.98;;;;;15.70;100188.00;;;;10259259;28;20240;-76
2024/04/05 08:47:55;;;;;;;6.68;1.83;;;;;16.00;100192.00;;;;10244198;28;20597;-75
2024/04/05 08:52:57;;;;;;;5.43;1.55;;;;;16.10;100207.00;;;;10253349;28;20222;-78
2024/04/05 08:57:59;;;;;;;2.90;1.20;;;;;16.10;100193.00;;;;10231236;28;20271;-78
2024/04/05 09:03:00;;;;;;;7.07;1.58;;;;;16.10;100181.00;;;;10231479;28;20236;-76
2024/04/05 09:08:03;;;;;;;3.35;1.00;;;;;16.20;100155.00;;;;10229055;28;20220;-76
2024/04/05 09:13:06;;;;;;;3.33;1.25;;;;;16.30;100155.00;;;;10215269;28;20252;-76
2024/04/05 09:18:07;;;;;;;3.35;1.50;;;;;16.70;100145.00;;;;10236193;28;20685;-75
2024/04/05 09:23:08;;;;;;;4.20;1.45;;;;;17.20;100154.00;;;;10246249;28;20870;-77
2024/04/05 09:28:12;;;;;;;4.88;1.60;;;;;17.60;100158.00;;;;10207209;28;20225;-77
2024/04/05 09:33:20;;;;;;;5.47;1.42;;;;;17.70;100160.00;;;;10201914;28;20222;-77
2024/04/05 09:38:23;;;;;;;2.80;1.30;;;;;17.60;100157.00;;;;10252375;28;20232;-78
2024/04/05 09:43:24;;;;;;;3.13;1.40;;;;;17.60;100152.00;;;;10244670;28;20283;-78
2024/04/05 09:48:31;;;;;;;6.53;1.80;;;;;17.30;100151.00;;;;10245465;28;20220;-77
2024/04/05 09:53:35;;;;;;;3.65;1.48;;;;;17.00;100162.00;;;;10219488;28;20220;-77
2024/04/05 09:58:37;;;;;;;7.75;1.50;;;;;16.90;100155.00;;;;10242145;28;20228;-77
2024/04/05 10:03:39;;;;;;;3.35;1.08;;;;;17.20;100187.00;;;;10246202;28;20263;-77
2024/04/05 10:08:42;;;;;;;4.25;1.17;;;;;17.90;100165.00;;;;10212353;28;20224;-78
2024/04/05 10:13:44;;;;;;;6.20;1.90;;;;;18.10;100168.00;;;;10247615;28;20248;-79
2024/04/05 10:18:45;;;;;;;1.77;1.23;;;;;18.20;100167.00;;;;10212408;28;20252;-77
2024/04/05 10:23:46;;;;;;;2.83;1.15;;;;;18.60;100171.00;;;;10227764;28;21045;-78
2024/04/05 10:28:47;;;;;;;4.25;1.38;;;;;18.60;100169.00;;;;10226679;28;20303;-79
2024/04/05 10:33:48;;;;;;;3.47;1.25;;;;;18.90;100182.00;;;;10221846;28;20592;-79
2024/04/05 10:38:49;;;;;;;1.95;1.20;;;;;19.20;100192.00;;;;10258483;28;20223;-78
2024/04/05 10:44:01;;;;;;;4.57;1.52;;;;;19.20;100190.00;;;;10221387;28;20644;-80
2024/04/05 10:49:02;;;;;;;5.20;1.30;;;;;19.00;100190.00;;;;10224975;28;20228;-79
2024/04/05 10:54:10;;;;;;;3.67;1.33;;;;;18.30;100197.00;;;;10218387;28;20257;-79
2024/04/05 10:59:12;;;;;;;5.05;1.60;;;;;17.50;100212.00;;;;10192542;28;20222;-80
2024/04/05 11:04:14;;;;;;;4.00;1.40;;;;;16.70;100238.00;;;;10252855;28;20225;-79
2024/04/05 11:09:15;;;;;;;3.78;1.40;;;;;16.20;100241.00;;;;10254729;28;20220;-79
2024/04/05 11:14:20;;;;;;;3.95;1.30;;;;;16.10;100245.00;;;;10250310;28;20902;-79
2024/04/05 11:19:25;;;;;;;3.58;1.55;;;;;16.40;100235.00;;;;10261944;28;20216;-80
2024/04/05 11:24:26;;;;;;;2.33;1.40;;;;;17.00;100241.00;;;;10233510;28;20232;-79
2024/04/05 11:29:27;;;;;;;4.25;1.45;;;;;16.80;100242.00;;;;10233842;28;20224;-79
2024/04/05 11:34:28;;;;;;;8.85;1.35;;;;;16.30;100231.00;;;;10258556;28;20216;-79
2024/04/05 11:39:29;;;;;;;3.17;1.20;;;;;16.30;100242.00;;;;10235601;28;20225;-79
2024/04/05 11:44:31;;;;;;;2.90;1.38;;;;;16.40;100245.00;;;;10225491;28;20252;-79
2024/04/05 11:49:32;;;;;;;3.88;1.35;;;;;16.80;100245.00;;;;10242125;28;20894;-80
2024/04/05 11:54:33;;;;;;;3.83;1.60;;;;;17.00;100255.00;;;;10225078;28;20221;-78
2024/04/05 11:59:34;;;;;;;3.65;1.27;;;;;16.70;100269.00;;;;10246056;28;20648;-75
2024/04/05 12:04:36;;;;;;;3.63;1.40;;;;;16.70;100282.00;;;;10236342;28;20232;-74
2024/04/05 12:09:38;;;;;;;2.83;1.30;;;;;17.10;100289.00;;;;10233309;28;20236;-76
2024/04/05 12:14:39;;;;;;;3.78;1.67;;;;;17.40;100279.00;;;;10231324;28;20231;-75
2024/04/05 12:19:39;;;;;;;4.05;1.60;;;;;18.40;100281.00;;;;10243799;28;20237;-74
2024/04/05 12:24:40;;;;;;;4.07;1.40;;;;;18.90;100302.00;;;;10216432;28;20225;-76
2024/04/05 12:29:45;;;;;;;3.58;1.50;;;;;19.20;100310.00;;;;10238933;28;20267;-77
2024/04/05 12:34:47;;;;;;;3.95;1.95;;;;;19.20;100316.00;;;;10228420;28;20233;-80
2024/04/05 12:39:48;;;;;;;5.53;1.67;;;;;18.30;100313.00;;;;10229868;28;20248;-77
2024/04/05 12:44:50;;;;;;;3.95;1.63;;;;;18.10;100324.00;;;;10227592;28;20876;-77
2024/04/05 12:49:51;;;;;;;3.65;1.42;;;;;18.00;100335.00;;;;10247648;28;20228;-77
2024/04/05 12:54:52;;;;;;;3.10;1.50;;;;;17.90;100333.00;;;;10226487;28;20224;-77
2024/04/05 12:59:53;;;;;;;3.47;1.40;;;;;18.50;100319.00;;;;10225224;28;20236;-76
2024/04/05 13:04:54;;;;;;;3.17;1.48;;;;;18.70;100342.00;;;;10246602;28;20232;-79
2024/04/05 13:09:56;;;;;;;2.97;1.58;;;;;19.10;100340.00;;;;10251671;28;20220;-79
2024/04/05 13:14:57;;;;;;;2.30;1.02;;;;;19.30;100325.00;;;;10217711;28;20702;-80
2024/04/05 13:19:58;;;;;;;3.58;1.60;;;;;20.10;100342.00;;;;10226367;28;20228;-78
2024/04/05 13:24:59;;;;;;;5.07;1.30;;;;;20.60;100333.00;;;;10245053;28;20324;-78
2024/04/05 13:30:00;;;;;;;1.85;1.10;;;;;21.10;100336.00;;;;10214369;28;20315;-80
2024/04/05 13:35:02;;;;;;;1.23;0.77;;;;;21.30;100339.00;;;;10246112;28;20232;-79
2024/04/05 13:40:09;;;;;;;3.22;1.20;;;;;22.10;100335.00;;;;10244832;28;20275;-79
2024/04/05 13:45:10;;;;;;;2.00;1.05;;;;;22.90;100342.00;;;;10240638;28;20229;-78
2024/04/05 13:50:13;;;;;;;3.13;0.90;;;;;22.60;100331.00;;;;10226427;28;20217;-78
2024/04/05 13:55:14;;;;;;;3.00;0.98;;;;;22.50;100320.00;;;;10237603;28;20224;-78
2024/04/05 14:00:16;;;;;;;3.85;1.02;;;;;22.30;100313.00;;;;10243226;28;20256;-79
2024/04/05 14:05:17;;;;;;;2.85;1.40;;;;;21.80;100335.00;;;;10233296;28;20223;-78
2024/04/05 14:10:18;;;;;;;5.65;0.95;;;;;22.00;100314.00;;;;10237246;28;20281;-84
2024/04/05 14:15:19;;;;;;;2.17;1.23;;;;;22.40;100326.00;;;;10267551;28;20260;-85
2024/04/05 14:20:20;;;;;;;2.10;0.90;;;;;22.40;100337.00;;;;10224862;28;20236;-83
2024/04/05 14:25:21;;;;;;;1.90;1.10;;;;;22.30;100338.00;;;;10226287;28;20224;-84
2024/04/05 14:30:22;;;;;;;1.45;1.00;;;;;21.80;100344.00;;;;10249020;28;20257;-85
2024/04/05 14:35:23;;;;;;;2.60;1.10;;;;;21.70;100349.00;;;;10259345;28;20648;-83
2024/04/05 14:40:24;;;;;;;3.75;1.00;;;;;22.00;100348.00;;;;10225550;28;20224;-82
2024/04/05 14:45:25;;;;;;;1.63;0.75;;;;;22.20;100348.00;;;;10216464;28;20229;-83
2024/04/05 14:50:26;;;;;;;1.83;0.93;;;;;22.30;100363.00;;;;10249460;28;20243;-84
2024/04/05 14:55:27;;;;;;;4.75;1.20;;;;;22.20;100356.00;;;;10249966;28;20283;-85
2024/04/05 15:00:28;;;;;;;2.97;1.15;;;;;22.40;100360.00;;;;10227956;28;20221;-84
2024/04/05 15:05:29;;;;;;;3.08;1.20;;;;;22.30;100374.00;;;;10249793;28;20248;-84
2024/04/05 15:10:30;;;;;;;4.38;1.17;;;;;22.30;100384.00;;;;10235654;28;20941;-83
2024/04/05 15:15:31;;;;;;;2.65;0.88;;;;;21.70;100390.00;;;;10231361;28;20251;-85
2024/04/05 15:20:32;;;;;;;4.43;1.20;;;;;21.30;100381.00;;;;10232700;28;20251;-79
2024/04/05 15:25:33;;;;;;;3.78;1.05;;;;;21.10;100383.00;;;;10268236;28;21301;-78
2024/04/05 15:30:35;;;;;;;2.42;1.10;;;;;21.20;100395.00;;;;10238675;28;20257;-78
2024/04/05 15:35:37;;;;;;;2.38;1.23;;;;;21.10;100403.00;;;;10246809;28;20228;-78
2024/04/05 15:40:38;;;;;;;3.13;0.98;;;;;21.10;100413.00;;;;10227714;28;20232;-79
2024/04/05 15:45:41;;;;;;;3.30;0.98;;;;;21.10;100406.00;;;;10254669;28;20235;-78
2024/04/05 15:50:42;;;;;;;2.60;0.80;;;;;20.90;100409.00;;;;10230071;28;20580;-79
2024/04/05 15:55:45;;;;;;;2.33;0.90;;;;;20.80;100407.00;;;;10236686;28;20303;-79
2024/04/05 16:00:49;;;;;;;2.28;0.90;;;;;20.70;100417.00;;;;10233550;28;20229;-79
2024/04/05 16:05:50;;;;;;;1.88;0.80;;;;;20.60;100404.00;;;;10218250;28;20233;-80
2024/04/05 16:10:56;;;;;;;4.78;1.00;;;;;20.50;100406.00;;;;10225359;28;20228;-80
2024/04/05 16:16:08;;;;;;;6.45;0.90;;;;;20.40;100413.00;;;;10248963;28;20220;-80
2024/04/05 16:21:11;;;;;;;1.67;1.08;;;;;20.10;100428.00;;;;10245200;28;20221;-81
2024/04/05 16:26:14;;;;;;;1.70;0.82;;;;;19.90;100438.00;;;;10214906;28;21301;-80
2024/04/05 16:31:15;;;;;;;1.63;1.00;;;;;19.80;100437.00;;;;10228685;28;20880;-79
2024/04/05 16:36:16;;;;;;;3.55;1.20;;;;;19.70;100444.00;;;;10241166;28;20303;-79
2024/04/05 16:41:18;;;;;;;1.35;0.63;;;;;19.60;100438.00;;;;10249806;28;20252;-79
2024/04/05 16:46:19;;;;;;;2.28;0.90;;;;;19.40;100431.00;;;;10227863;28;20648;-79
2024/04/05 16:51:23;;;;;;;2.22;1.00;;;;;19.10;100439.00;;;;10226888;28;20224;-79
2024/04/05 16:56:25;;;;;;;1.60;0.60;;;;;19.00;100449.00;;;;10245047;28;20683;-80
2024/04/05 17:01:26;;;;;;;3.40;1.10;;;;;18.90;100456.00;;;;10263789;28;20269;-78
2024/04/05 17:06:37;;;;;;;1.80;1.02;;;;;18.80;100459.00;;;;10230389;28;20631;-78
2024/04/05 17:11:38;;;;;;;5.22;0.90;;;;;18.70;100465.00;;;;10219778;28;20217;-79
2024/04/05 17:16:39;;;;;;;2.97;0.82;;;;;18.70;100460.00;;;;10245637;28;20224;-78
2024/04/05 17:21:40;;;;;;;3.63;1.10;;;;;18.50;100458.00;;;;10230197;28;20560;-77
2024/04/05 17:26:41;;;;;;;1.67;0.80;;;;;18.40;100453.00;;;;10249128;28;20220;-77
2024/04/05 17:31:42;;;;;;;2.70;1.10;;;;;18.30;100458.00;;;;10240825;28;20228;-78
2024/04/05 17:36:44;;;;;;;2.22;1.17;;;;;18.10;100466.00;;;;10245994;28;20224;-78
2024/04/05 17:41:45;;;;;;;2.78;1.10;;;;;18.00;100469.00;;;;10251938;28;20244;-81
2024/04/05 17:46:46;;;;;;;1.40;0.80;;;;;18.00;100474.00;;;;10217677;28;20236;-82
2024/04/05 17:51:47;;;;;;;2.88;1.13;;;;;18.00;100487.00;;;;10219532;28;20880;-81
2024/04/05 17:56:48;;;;;;;1.90;1.17;;;;;18.00;100493.00;;;;10242482;28;20248;-82
2024/04/05 18:01:49;;;;;;;2.13;1.40;;;;;17.80;100486.00;;;;10228099;28;20240;-82
2024/04/05 18:06:51;;;;;;;3.63;1.38;;;;;17.70;100486.00;;;;10234120;28;20228;-82
2024/04/05 18:11:52;;;;;;;3.20;1.10;;;;;17.50;100491.00;;;;10249181;28;20220;-81
2024/04/05 18:16:54;;;;;;;3.55;1.30;;;;;17.30;100503.00;;;;10222477;28;20220;-82
2024/04/05 18:21:55;;;;;;;4.15;1.60;;;;;17.30;100498.00;;;;10241322;28;20251;-81
2024/04/05 18:26:56;;;;;;;2.53;1.25;;;;;17.20;100512.00;;;;10261183;28;20219;-81
2024/04/05 18:32:00;;;;;;;3.40;1.33;;;;;17.20;100512.00;;;;10208420;28;20311;-81
2024/04/05 18:37:04;;;;;;;4.35;1.50;;;;;17.20;100509.00;;;;10228367;28;20232;-81
2024/04/05 18:42:19;;;;;;;4.15;1.40;;;;;17.20;100519.00;;;;10235052;28;20224;-81
2024/04/05 18:47:20;;;;;;;6.50;1.75;;;;;17.10;100523.00;;;;10266305;28;20232;-81
2024/04/05 18:52:23;;;;;;;2.75;1.70;;;;;17.00;100521.00;;;;10220390;28;20231;-79
2024/04/05 18:57:25;;;;;;;4.85;1.65;;;;;17.00;100534.00;;;;10227297;28;20677;-79
2024/04/05 19:02:26;;;;;;;3.33;1.55;;;;;16.90;100536.00;;;;10231397;28;20233;-79
2024/04/05 19:07:28;;;;;;;4.45;1.85;;;;;16.90;100546.00;;;;10215640;28;20231;-78
2024/04/05 19:12:34;;;;;;;5.05;1.60;;;;;16.90;100559.00;;;;10230744;28;20740;-78
2024/04/05 19:17:38;;;;;;;5.65;1.83;;;;;17.00;100567.00;;;;10236006;28;20809;-79
2024/04/05 19:22:39;;;;;;;2.47;1.70;;;;;17.00;100570.00;;;;10243017;28;20231;-80
2024/04/05 19:27:40;;;;;;;2.20;1.40;;;;;17.00;100577.00;;;;10237030;28;20220;-79
2024/04/05 19:32:42;;;;;;;2.25;1.30;;;;;17.00;100574.00;;;;10233766;28;20224;-80
2024/04/05 19:37:44;;;;;;;3.08;1.67;;;;;16.60;100588.00;;;;10218180;28;20225;-82
2024/04/05 19:42:44;;;;;;;2.22;1.35;;;;;16.40;100581.00;;;;10206402;28;20811;-82
2024/04/05 19:47:45;;;;;;;4.90;1.48;;;;;16.40;100580.00;;;;10238480;28;20228;-81
2024/04/05 19:52:50;;;;;;;3.90;1.58;;;;;16.40;100573.00;;;;10235805;28;20652;-80
2024/04/05 19:57:51;;;;;;;2.42;1.40;;;;;16.40;100572.00;;;;10225758;28;20585;-80
2024/04/05 20:02:54;;;;;;;3.03;1.50;;;;;16.40;100577.00;;;;10234976;28;20241;-79
2024/04/05 20:07:55;;;;;;;4.43;1.77;;;;;16.40;100589.00;;;;10216500;28;20313;-77
2024/04/05 20:12:56;;;;;;;2.35;1.50;;;;;16.30;100595.00;;;;10224139;28;20237;-79
2024/04/05 20:17:57;;;;;;;2.30;1.77;;;;;16.40;100579.00;;;;10253328;28;20307;-79
2024/04/05 20:22:58;;;;;;;3.58;1.40;;;;;16.40;100598.00;;;;10226480;28;20225;-77
2024/04/05 20:27:59;;;;;;;4.15;1.30;;;;;16.40;100593.00;;;;10230401;28;20243;-79
2024/04/05 20:33:01;;;;;;;2.85;1.20;;;;;16.40;100599.00;;;;10246822;28;20702;-78
2024/04/05 20:38:02;;;;;;;3.10;1.30;;;;;16.30;100591.00;;;;10231034;28;20859;-78
2024/04/05 20:43:03;;;;;;;3.35;1.02;;;;;16.20;100582.00;;;;10243649;28;20227;-78
2024/04/05 20:48:05;;;;;;;3.38;1.20;;;;;16.20;100575.00;;;;10228874;28;20303;-78
2024/04/05 20:53:06;;;;;;;4.68;1.30;;;;;16.10;100580.00;;;;10236466;28;20717;-78
2024/04/05 20:58:07;;;;;;;2.78;1.33;;;;;16.00;100574.00;;;;10230801;28;20236;-77
2024/04/05 21:03:08;;;;;;;2.97;1.40;;;;;16.00;100589.00;;;;10226799;28;20225;-77
2024/04/05 21:08:09;;;;;;;3.85;1.55;;;;;15.90;100611.00;;;;10263993;28;20228;-77
2024/04/05 21:13:10;;;;;;;2.47;1.30;;;;;15.90;100617.00;;;;10228844;28;20216;-78
2024/04/05 21:18:11;;;;;;;2.72;1.27;;;;;15.90;100600.00;;;;10213484;28;20884;-78
2024/04/05 21:23:13;;;;;;;4.68;1.42;;;;;15.90;100627.00;;;;10241297;28;20220;-90
2024/04/05 21:28:14;;;;;;;3.22;1.17;;;;;15.90;100632.00;;;;10233636;28;20224;-87
2024/04/05 21:33:15;;;;;;;5.88;1.65;;;;;15.80;100635.00;;;;10262128;28;20228;-89
2024/04/05 21:38:16;;;;;;;4.18;1.77;;;;;15.80;100636.00;;;;10230370;28;20467;-87
2024/04/05 21:43:17;;;;;;;1.63;1.27;;;;;15.70;100650.00;;;;10224521;28;20224;-87
2024/04/05 21:48:18;;;;;;;4.63;1.80;;;;;15.70;100649.00;;;;10231771;28;20312;-88
2024/04/05 21:53:19;;;;;;;2.90;1.35;;;;;15.70;100632.00;;;;10238882;28;20264;-89
2024/04/05 21:58:20;;;;;;;4.03;1.60;;;;;15.70;100643.00;;;;10246489;28;20247;-87
2024/04/05 22:03:21;;;;;;;4.70;1.50;;;;;15.70;100642.00;;;;10238790;28;20228;-89
2024/04/05 22:08:23;;;;;;;2.30;1.30;;;;;15.70;100642.00;;;;10243536;28;20291;-90
2024/04/05 22:13:24;;;;;;;3.75;1.80;;;;;15.70;100639.00;;;;10257309;28;20251;-85
2024/04/05 22:18:25;;;;;;;2.20;1.17;;;;;15.60;100644.00;;;;10243927;28;20221;-85
2024/04/05 22:23:26;;;;;;;4.35;1.60;;;;;15.60;100645.00;;;;10307016;23;20235;-89
2024/04/05 22:28:27;;;;;;;6.10;1.75;;;;;15.60;100654.00;;;;10329387;28;20633;-89
2024/04/05 22:33:28;;;;;;;5.63;1.48;;;;;15.50;100654.00;;;;10290615;28;20250;-79
2024/04/05 22:38:30;;;;;;;4.65;1.40;;;;;15.50;100652.00;;;;10322855;28;20311;-80
2024/04/05 22:43:31;;;;;;;3.65;1.70;;;;;15.50;100649.00;;;;10305631;28;20223;-80
2024/04/05 22:48:33;;;;;;;4.63;2.05;;;;;15.40;100658.00;;;;10295557;28;20298;-78
2024/04/05 22:53:34;;;;;;;2.95;1.60;;;;;15.40;100639.00;;;;10314843;28;20257;-78
2024/04/05 22:58:35;;;;;;;3.28;1.52;;;;;15.40;100634.00;;;;10311198;28;21233;-80
2024/04/05 23:03:36;;;;;;;2.58;1.30;;;;;15.40;100624.00;;;;10307151;28;20906;-78
2024/04/05 23:08:37;;;;;;;1.92;1.30;;;;;15.30;100622.00;;;;10295130;28;20218;-79
2024/04/05 23:13:37;;;;;;;2.45;1.42;;;;;15.30;100601.00;;;;10320872;28;20249;-77
2024/04/05 23:18:38;;;;;;;2.08;1.42;;;;;15.30;100598.00;;;;10331910;28;20852;-79
2024/04/05 23:23:40;;;;;;;3.97;1.73;;;;;15.20;100608.00;;;;10311457;28;20861;-78
2024/04/05 23:28:41;;;;;;;2.65;1.40;;;;;15.10;100616.00;;;;10305964;28;20221;-79
2024/04/05 23:33:42;;;;;;;2.70;1.60;;;;;15.00;100608.00;;;;10314137;28;20227;-78
2024/04/05 23:38:43;;;;;;;3.40;1.67;;;;;14.90;100615.00;;;;10297656;28;20706;-78
2024/04/05 23:43:45;;;;;;;4.65;1.55;;;;;14.80;100619.00;;;;10325632;28;20906;-80
2024/04/05 23:48:46;;;;;;;5.10;1.90;;;;;14.70;100610.00;;;;10293938;28;20235;-79
2024/04/05 23:53:48;;;;;;;5.72;1.60;;;;;14.60;100599.00;;;;10286863;28;20706;-79
2024/04/05 23:58:50;;;;;;;2.63;1.67;;;;;14.50;100611.00;;;;10297421;28;20923;-79
